createdAt,value
2022-12-17T08:25:26.927Z,97259.94
2022-12-17T08:26:48.386Z,97209.72
2022-12-17T08:31:26.597Z,97254.59
2022-12-17T08:34:57.102Z,97279.84
2022-12-17T08:41:14.086Z,97283.00
2022-12-17T08:44:27.607Z,97280.19
2022-12-17T08:48:58.075Z,97289.50
2022-12-17T08:51:41.659Z,97306.47
2022-12-17T08:53:01.798Z,97299.09
2022-12-17T08:54:22.064Z,97291.63
2022-12-17T08:55:42.297Z,97298.47
2022-12-17T08:57:02.282Z,97308.41
2022-12-17T08:58:22.319Z,97311.53
2022-12-17T08:59:45.776Z,97311.09
2022-12-17T09:01:05.641Z,97310.59
2022-12-17T09:02:28.660Z,97306.25
2022-12-17T09:03:48.789Z,97312.31
2022-12-17T09:05:08.616Z,97317.41
2022-12-17T09:06:28.865Z,97305.44
2022-12-17T09:07:53.058Z,97313.97
2022-12-17T09:09:17.604Z,97309.66
2022-12-17T09:10:37.427Z,97309.72
2022-12-17T09:11:57.688Z,97308.72
2022-12-17T09:13:22.474Z,97317.34
2022-12-17T09:14:46.603Z,97318.22
2022-12-17T09:16:11.475Z,97310.59
2022-12-17T09:17:31.131Z,97310.59
2022-12-17T09:18:51.260Z,97307.38
2022-12-17T09:20:14.701Z,97311.09
2022-12-17T09:21:34.367Z,97313.38
2022-12-17T09:22:54.768Z,97306.94
2022-12-17T09:24:14.542Z,97302.56
2022-12-17T09:25:34.686Z,97309.63
2022-12-17T09:26:54.970Z,97311.84
2022-12-17T09:28:19.618Z,97312.06
2022-12-17T09:29:39.813Z,97311.66
2022-12-17T09:30:59.600Z,97316.00
2022-12-17T09:32:19.642Z,97310.44
2022-12-17T09:33:43.199Z,97306.09
2022-12-17T09:35:02.934Z,97313.69
2022-12-17T09:36:24.767Z,97310.00
2022-12-17T09:37:44.461Z,97309.56
2022-12-17T09:39:07.667Z,97305.69
2022-12-17T09:40:35.401Z,97312.06
2022-12-17T09:42:13.369Z,97303.13
2022-12-17T09:43:55.547Z,97298.03
2022-12-17T09:45:22.955Z,97258.72
2022-12-17T09:46:52.470Z,97314.53
2022-12-17T09:48:32.853Z,97314.69
2022-12-17T09:49:53.165Z,97307.81
2022-12-17T09:51:12.902Z,97309.56
2022-12-17T09:52:58.435Z,97317.31
2022-12-17T09:54:23.073Z,97315.72
2022-12-17T09:55:58.498Z,97316.31
2022-12-17T09:57:18.802Z,97320.47
2022-12-17T09:58:47.181Z,97301.78
2022-12-17T10:00:11.158Z,97310.50
2022-12-17T10:01:40.800Z,97324.78
2022-12-17T10:03:00.829Z,97315.28
2022-12-17T10:04:25.170Z,97315.94
2022-12-17T10:05:50.050Z,97298.84
2022-12-17T10:07:09.862Z,97314.94
2022-12-17T10:08:34.313Z,97315.81
2022-12-17T10:09:55.150Z,97311.81
2022-12-17T10:11:34.176Z,97300.19
2022-12-17T10:12:55.021Z,97311.56
2022-12-17T10:14:14.798Z,97295.78
2022-12-17T10:15:38.259Z,97319.78
2022-12-17T10:17:08.553Z,97307.78
2022-12-17T10:18:35.245Z,97309.22
2022-12-17T10:19:58.995Z,97308.75
2022-12-17T10:21:28.496Z,97309.47
2022-12-17T10:22:48.240Z,97316.06
2022-12-17T10:24:08.037Z,97307.56
2022-12-17T10:25:54.759Z,97326.34
2022-12-17T10:27:17.960Z,97323.06
2022-12-17T10:28:41.519Z,97316.53
2022-12-17T10:30:03.276Z,97320.44
2022-12-17T10:31:29.735Z,97318.84
2022-12-17T10:32:54.178Z,97321.66
2022-12-17T10:34:16.178Z,97324.56
2022-12-17T10:35:45.145Z,97319.63
2022-12-17T10:37:08.314Z,97314.25
2022-12-17T10:38:51.249Z,97317.38
2022-12-17T10:40:19.082Z,97322.63
2022-12-17T10:41:44.931Z,97318.38
2022-12-17T10:43:04.788Z,97323.22
2022-12-17T10:45:13.738Z,97318.63
2022-12-17T10:46:48.476Z,97319.44
2022-12-17T10:48:08.621Z,97319.34
2022-12-17T10:49:34.347Z,97315.75
2022-12-17T10:51:00.819Z,97319.66
2022-12-17T10:52:25.279Z,97321.66
2022-12-17T10:53:45.512Z,97318.44
2022-12-17T10:55:18.114Z,97320.28
2022-12-17T10:56:45.177Z,97326.69
2022-12-17T10:58:08.244Z,97324.63
2022-12-17T10:59:50.457Z,97325.44
2022-12-17T11:01:18.315Z,97317.44
2022-12-17T11:02:48.350Z,97318.38
2022-12-17T11:04:18.686Z,97327.13
2022-12-17T11:05:57.776Z,97324.03
2022-12-17T11:07:19.526Z,97326.91
2022-12-17T11:08:40.651Z,97323.41
2022-12-17T11:10:09.852Z,97325.44
2022-12-17T11:11:33.283Z,97322.88
2022-12-17T11:13:00.630Z,97318.53
2022-12-17T11:14:23.688Z,97334.66
2022-12-17T11:15:55.446Z,97338.00
2022-12-17T11:17:21.481Z,97332.69
2022-12-17T11:18:47.056Z,97330.00
2022-12-17T11:20:24.774Z,97325.13
2022-12-17T11:21:58.524Z,97329.97
2022-12-17T11:23:19.256Z,97335.66
2022-12-17T11:24:51.416Z,97336.94
2022-12-17T11:26:31.077Z,97337.91
2022-12-17T11:28:03.344Z,97325.31
2022-12-17T11:29:23.323Z,97330.19
2022-12-17T11:30:45.485Z,97330.28
2022-12-17T11:32:20.544Z,97330.75
2022-12-17T11:33:49.745Z,97325.78
2022-12-17T11:35:25.248Z,97327.16
2022-12-17T11:36:57.975Z,97331.81
2022-12-17T11:38:44.642Z,97320.13
2022-12-17T11:40:19.678Z,97334.97
2022-12-17T11:41:55.601Z,97333.25
2022-12-17T11:43:30.769Z,97335.31
2022-12-17T11:45:04.227Z,97326.81
2022-12-17T11:46:41.942Z,97334.44
2022-12-17T11:48:13.669Z,97331.53
2022-12-17T11:49:52.929Z,97329.38
2022-12-17T11:51:19.248Z,97314.31
2022-12-17T11:52:58.048Z,97287.00
2022-12-17T11:54:24.849Z,97317.75
2022-12-17T11:55:50.332Z,97323.16
2022-12-17T11:57:15.156Z,97322.06
2022-12-17T11:58:46.531Z,97325.69
2022-12-17T12:00:25.584Z,97315.22
2022-12-17T12:02:00.025Z,97315.41
2022-12-17T12:03:26.092Z,97308.44
2022-12-17T12:05:15.653Z,97321.81
2022-12-17T12:07:22.481Z,97317.97
2022-12-17T12:08:48.332Z,97325.63
2022-12-17T12:10:08.138Z,97332.78
2022-12-17T12:11:58.541Z,97322.94
2022-12-17T12:13:37.656Z,97326.06
2022-12-17T12:15:35.974Z,97319.59
2022-12-17T12:17:13.733Z,97316.19
2022-12-17T12:18:48.700Z,97315.78
2022-12-17T12:20:21.008Z,97314.34
2022-12-17T12:21:58.064Z,97320.69
2022-12-17T12:23:35.336Z,97320.66
2022-12-17T12:25:14.120Z,97320.97
2022-12-17T12:26:36.522Z,97321.63
2022-12-17T12:28:12.067Z,97306.94
2022-12-17T12:29:55.337Z,97315.59
2022-12-17T12:31:45.790Z,97317.22
2022-12-17T12:33:10.250Z,97320.38
2022-12-17T12:34:35.789Z,97314.78
2022-12-17T12:35:56.740Z,97326.09
2022-12-17T12:37:20.699Z,97324.88
2022-12-17T12:38:52.158Z,97324.66
2022-12-17T12:40:40.204Z,97317.94
2022-12-17T12:42:34.156Z,97314.38
2022-12-17T12:44:03.985Z,97311.25
2022-12-17T12:46:11.541Z,97317.44
2022-12-17T12:47:51.392Z,97319.72
2022-12-17T12:49:29.789Z,97318.72
2022-12-17T12:51:05.526Z,97320.78
2022-12-17T12:52:29.680Z,97322.03
2022-12-17T12:53:50.500Z,97323.44
2022-12-17T12:55:13.215Z,97326.56
2022-12-17T12:56:54.403Z,97327.34
2022-12-17T12:58:23.253Z,97331.25
2022-12-17T12:59:55.374Z,97322.50
2022-12-17T13:01:20.204Z,97332.25
2022-12-17T13:02:50.739Z,97333.19
2022-12-17T13:04:13.813Z,97337.63
2022-12-17T13:05:39.521Z,97340.00
2022-12-17T13:06:55.393Z,97342.88
2022-12-17T13:08:08.677Z,97341.66
2022-12-17T13:09:16.437Z,97336.00
2022-12-17T13:10:30.521Z,97322.53
2022-12-17T13:11:38.332Z,97321.09
2022-12-17T13:12:47.382Z,97321.22
2022-12-17T13:13:56.079Z,97319.66
2022-12-17T13:15:06.253Z,97322.22
2022-12-17T13:16:45.966Z,97317.13
2022-12-17T13:18:04.766Z,97320.59
2022-12-17T13:19:20.480Z,97333.53
2022-12-17T13:20:30.926Z,97333.66
2022-12-17T13:21:32.840Z,97320.28
2022-12-17T13:22:34.189Z,97316.53
2022-12-17T13:23:38.097Z,97314.09
2022-12-17T13:24:39.819Z,97319.06
2022-12-17T13:25:42.182Z,97323.72
2022-12-17T13:26:45.479Z,97318.00
2022-12-17T13:27:48.112Z,97323.72
2022-12-17T13:28:59.818Z,97316.66
2022-12-17T13:30:33.326Z,97320.88
2022-12-17T13:32:05.271Z,97319.69
2022-12-17T13:33:24.889Z,97319.25
2022-12-17T13:35:00.617Z,97311.53
2022-12-17T13:36:18.606Z,97310.72
2022-12-17T13:37:50.530Z,97311.06
2022-12-17T13:39:00.760Z,97306.16
2022-12-17T13:40:17.330Z,97309.03
2022-12-17T13:41:21.277Z,97304.59
2022-12-17T13:42:36.423Z,97310.81
2022-12-17T13:43:51.114Z,97301.69
2022-12-17T13:44:53.412Z,97306.44
2022-12-17T13:45:55.593Z,97311.72
2022-12-17T13:47:00.928Z,97295.94
2022-12-17T13:48:27.204Z,97313.56
2022-12-17T13:49:30.411Z,97304.28
2022-12-17T13:50:34.847Z,97312.81
2022-12-17T13:51:37.161Z,97311.66
2022-12-17T13:52:39.117Z,97315.88
2022-12-17T13:53:40.468Z,97317.56
2022-12-17T13:54:41.825Z,97311.94
2022-12-17T13:55:50.570Z,97318.56
2022-12-17T13:56:52.211Z,97329.00
2022-12-17T13:57:54.282Z,97335.63
2022-12-17T13:58:57.389Z,97334.09
2022-12-17T14:00:02.284Z,97321.78
2022-12-17T14:01:14.645Z,97336.50
2022-12-17T14:02:31.504Z,97337.97
2022-12-17T14:03:57.136Z,97333.66
2022-12-17T14:04:57.252Z,97341.00
2022-12-17T14:05:59.705Z,97343.44
2022-12-17T14:07:05.259Z,97334.00
2022-12-17T14:08:06.796Z,97333.94
2022-12-17T14:09:18.461Z,97340.03
2022-12-17T14:10:20.412Z,97334.91
2022-12-17T14:11:40.884Z,97336.75
2022-12-17T14:12:43.223Z,97331.41
2022-12-17T14:13:47.289Z,97339.31
2022-12-17T14:14:52.507Z,97328.03
2022-12-17T14:15:53.967Z,97353.91
2022-12-17T14:16:55.851Z,97348.97
2022-12-17T14:17:59.224Z,97348.25
2022-12-17T14:19:00.802Z,97354.88
2022-12-17T14:20:15.849Z,97353.00
2022-12-17T14:21:18.191Z,97343.78
2022-12-17T14:22:29.690Z,97363.47
2022-12-17T14:23:36.779Z,97362.69
2022-12-17T14:24:38.929Z,97356.81
2022-12-17T14:25:42.634Z,97357.69
2022-12-17T14:27:00.775Z,97363.72
2022-12-17T14:28:24.928Z,97361.81
2022-12-17T14:29:32.486Z,97364.44
2022-12-17T14:31:02.471Z,97365.47
2022-12-17T14:32:21.485Z,97364.59
2022-12-17T14:33:31.460Z,97357.66
2022-12-17T14:34:42.684Z,97360.25
2022-12-17T14:35:59.127Z,97335.31
2022-12-17T14:37:00.864Z,97353.31
2022-12-17T14:38:03.243Z,97369.47
2022-12-17T14:39:24.862Z,97371.59
2022-12-17T14:40:26.543Z,97360.81
2022-12-17T14:41:54.379Z,97371.97
2022-12-17T14:43:00.791Z,97366.56
2022-12-17T14:44:03.121Z,97362.34
2022-12-17T14:45:25.727Z,97376.88
2022-12-17T14:46:29.352Z,97377.69
2022-12-17T14:47:35.788Z,97375.06
2022-12-17T14:48:55.792Z,97374.00
2022-12-17T14:50:02.252Z,97375.88
2022-12-17T14:51:06.500Z,97354.34
2022-12-17T14:52:15.083Z,97375.66
2022-12-17T14:53:26.686Z,97367.63
2022-12-17T14:54:30.834Z,97371.78
2022-12-17T14:55:37.945Z,97376.03
2022-12-17T14:56:40.363Z,97363.84
2022-12-17T14:57:45.918Z,97374.03
2022-12-17T14:58:47.614Z,97370.59
2022-12-17T14:59:50.278Z,97367.81
2022-12-17T15:00:58.056Z,97371.88
2022-12-17T15:02:26.401Z,97358.16
2022-12-17T15:03:31.884Z,97378.97
2022-12-17T15:04:38.367Z,97384.13
2022-12-17T15:05:39.793Z,97380.41
2022-12-17T15:06:41.870Z,97378.47
2022-12-17T15:07:43.951Z,97352.28
2022-12-17T15:08:48.225Z,97383.81
2022-12-17T15:09:49.655Z,97377.63
2022-12-17T15:10:51.471Z,97386.13
2022-12-17T15:11:52.843Z,97381.31
2022-12-17T15:12:54.209Z,97388.09
2022-12-17T15:13:56.790Z,97385.09
2022-12-17T15:14:58.384Z,97384.03
2022-12-17T15:15:59.799Z,97376.94
2022-12-17T15:17:01.831Z,97386.94
2022-12-17T15:18:03.504Z,97386.81
2022-12-17T15:19:04.896Z,97391.63
2022-12-17T15:20:06.780Z,97385.53
2022-12-17T15:21:10.959Z,97398.81
2022-12-17T15:22:17.228Z,97392.47
2022-12-17T15:23:21.227Z,97362.75
2022-12-17T15:24:22.689Z,97396.34
2022-12-17T15:25:24.116Z,97390.16
2022-12-17T15:26:25.536Z,97394.16
2022-12-17T15:27:26.896Z,97390.72
2022-12-17T15:28:28.297Z,97401.41
2022-12-17T15:29:31.788Z,97392.75
2022-12-17T15:30:33.173Z,97400.06
2022-12-17T15:31:35.798Z,97392.16
2022-12-17T15:32:37.371Z,97397.13
2022-12-17T15:33:39.412Z,97383.91
2022-12-17T15:34:40.894Z,97405.16
2022-12-17T15:35:42.772Z,97393.75
2022-12-17T15:36:44.182Z,97398.72
2022-12-17T15:37:45.508Z,97395.13
2022-12-17T15:38:46.849Z,97400.16
2022-12-17T15:39:48.300Z,97399.97
2022-12-17T15:40:56.147Z,97392.94
2022-12-17T15:42:16.203Z,97403.81
2022-12-17T15:43:17.848Z,97400.19
2022-12-17T15:44:19.264Z,97399.34
2022-12-17T15:45:20.595Z,97398.34
2022-12-17T15:46:25.291Z,97411.88
2022-12-17T15:47:26.766Z,97411.72
2022-12-17T15:48:28.129Z,97415.81
2022-12-17T15:49:29.523Z,97416.44
2022-12-17T15:50:31.574Z,97408.56
